Warrenville, Illinois
Current Conditions -  °F | °C
As of 6:52 PM on Wednesday 22 Oct 2014 (Local Time) from KDPA Reporting Station
Clear Clear  
Wind Chill: 44°   Ceiling: Unl
Heat Index: 48°   Visibility: 10mi
Dew Point: 37°   Wind: 8mph
Humidity: 66%   Direction: 100°E
Pressure: 30.25"   Gusts: NA
Location:  41.82°N, 88.18°W
Report Text: KDPA 222352Z 10007KT 10SM CLR 09/03 A3025 RMK AO2 SLP250 T00890028 10156 20089 56007
Loading
Personal Weather Stations






























Interactive Weather Map
Tropical Storm Tracking
New forecast layout! Learn more

10-Day Weather Forecast

Advertisements
Track Severe Weather on mobile